createdAt,value
2018-04-13T00:00:31.881Z,2.57
2018-04-13T00:02:59.779Z,2.17
2018-04-13T00:05:26.082Z,3.27
2018-04-13T00:07:53.387Z,1.53
2018-04-13T00:10:20.929Z,5.40
2018-04-13T00:12:47.722Z,3.97
2018-04-13T00:15:14.897Z,2.97
2018-04-13T00:17:41.081Z,2.40
2018-04-13T00:20:13.380Z,3.50
2018-04-13T00:22:40.996Z,3.50
2018-04-13T00:25:13.647Z,2.10
2018-04-13T00:27:46.628Z,3.00
2018-04-13T00:30:13.025Z,4.10
2018-04-13T00:32:39.978Z,4.10
2018-04-13T00:35:07.162Z,3.53
2018-04-13T00:37:40.022Z,2.13
2018-04-13T00:40:06.286Z,3.03
2018-04-13T00:42:33.057Z,3.73
2018-04-13T00:45:05.897Z,11.17
2018-04-13T00:47:32.617Z,9.57
2018-04-13T00:49:59.788Z,6.67
2018-04-13T00:52:32.081Z,6.23
2018-04-13T00:54:58.891Z,3.53
2018-04-13T00:57:25.687Z,5.53
2018-04-13T00:59:52.252Z,6.10
2018-04-13T01:02:19.308Z,5.63
2018-04-13T01:04:52.033Z,5.80
2018-04-13T01:07:19.254Z,6.43
2018-04-13T01:09:45.469Z,4.10
2018-04-13T01:12:19.122Z,4.33
2018-04-13T01:14:46.181Z,6.70
2018-04-13T01:17:12.927Z,3.30
2018-04-13T01:19:39.899Z,5.07
2018-04-13T01:22:06.781Z,6.30
2018-04-13T01:24:33.502Z,4.03
2018-04-13T01:26:59.717Z,4.60
2018-04-13T01:29:32.294Z,4.37
2018-04-13T01:32:06.400Z,4.00
2018-04-13T01:34:39.295Z,2.83
2018-04-13T01:37:11.945Z,5.97
2018-04-13T01:39:39.127Z,4.33
2018-04-13T01:42:06.049Z,4.00
2018-04-13T01:44:38.335Z,7.40
2018-04-13T01:47:04.533Z,4.77
2018-04-13T01:49:38.322Z,5.23
2018-04-13T01:52:04.553Z,5.80
2018-04-13T01:54:38.253Z,5.77
2018-04-13T01:57:11.924Z,5.50
2018-04-13T01:59:44.201Z,7.93
2018-04-13T02:02:16.536Z,8.90
2018-04-13T02:04:42.761Z,5.70
2018-04-13T02:07:21.747Z,6.50
2018-04-13T02:09:48.849Z,13.07
2018-04-13T02:12:21.802Z,7.67
2018-04-13T02:14:54.937Z,3.40
2018-04-13T02:17:27.814Z,8.40
2018-04-13T02:19:54.179Z,5.50
2018-04-13T02:22:21.129Z,8.97
2018-04-13T02:24:54.863Z,5.67
2018-04-13T02:27:23.058Z,6.27
2018-04-13T02:29:49.827Z,10.97
2018-04-13T02:32:16.233Z,7.70
2018-04-13T02:34:42.434Z,6.97
2018-04-13T02:37:09.675Z,6.03
2018-04-13T02:39:36.613Z,10.60
2018-04-13T02:42:09.897Z,5.53
2018-04-13T02:44:43.388Z,7.57
2018-04-13T02:47:10.352Z,8.27
2018-04-13T02:49:37.450Z,11.87
2018-04-13T02:52:10.471Z,10.00
2018-04-13T02:54:36.706Z,5.87
2018-04-13T02:57:03.997Z,10.77
2018-04-13T02:59:31.287Z,5.87
2018-04-13T03:01:58.008Z,4.50
2018-04-13T03:04:25.345Z,7.30
2018-04-13T03:07:03.830Z,8.20
2018-04-13T03:09:30.773Z,3.80
2018-04-13T03:11:57.710Z,4.93
2018-04-13T03:14:24.002Z,8.93
2018-04-13T03:16:57.451Z,3.87
2018-04-13T03:19:30.693Z,9.47
2018-04-13T03:21:57.050Z,7.10
2018-04-13T03:24:24.026Z,6.03
2018-04-13T03:26:50.945Z,5.50
2018-04-13T03:29:23.368Z,13.77
2018-04-13T03:31:50.377Z,8.33
2018-04-13T03:34:17.321Z,5.80
2018-04-13T03:36:44.908Z,7.47
2018-04-13T03:39:11.917Z,6.93
2018-04-13T03:41:38.236Z,9.33
2018-04-13T03:44:04.712Z,7.50
2018-04-13T03:46:32.662Z,6.97
2018-04-13T03:49:05.731Z,10.17
2018-04-13T03:51:31.942Z,13.17
2018-04-13T03:53:58.136Z,11.17
2018-04-13T03:56:24.358Z,10.13
2018-04-13T03:58:51.101Z,10.47
2018-04-13T04:01:24.787Z,14.60
2018-04-13T04:03:52.004Z,13.23
2018-04-13T04:06:18.202Z,7.40
2018-04-13T04:08:44.431Z,8.10
2018-04-13T04:11:16.827Z,9.93
2018-04-13T04:13:43.724Z,6.40
2018-04-13T04:16:09.918Z,7.90
2018-04-13T04:18:43.604Z,11.70
2018-04-13T04:21:21.917Z,9.80
2018-04-13T04:24:06.543Z,11.43
2018-04-13T04:26:44.809Z,8.47
2018-04-13T04:29:12.427Z,11.33
2018-04-13T04:31:39.151Z,12.20
2018-04-13T04:34:11.661Z,9.43
2018-04-13T04:36:39.304Z,8.37
2018-04-13T04:39:07.296Z,14.37
2018-04-13T04:41:39.784Z,7.87
2018-04-13T04:44:08.005Z,9.17
2018-04-13T04:46:35.773Z,12.60
2018-04-13T04:49:08.141Z,8.90
2018-04-13T04:51:34.701Z,11.33
2018-04-13T04:54:00.898Z,13.23
2018-04-13T04:56:27.481Z,8.53
2018-04-13T04:58:53.744Z,14.80
2018-04-13T05:01:32.167Z,7.70
2018-04-13T05:04:04.396Z,7.40
2018-04-13T05:06:43.306Z,11.37
2018-04-13T05:09:23.051Z,10.03
2018-04-13T05:11:49.341Z,7.67
2018-04-13T05:14:16.233Z,9.80
2018-04-13T05:16:43.021Z,11.87
2018-04-13T05:19:09.422Z,17.50
2018-04-13T05:21:37.808Z,10.23
2018-04-13T05:24:05.960Z,19.50
2018-04-13T05:26:33.477Z,5.77
2018-04-13T05:29:00.247Z,9.63
2018-04-13T05:31:27.036Z,10.30
2018-04-13T05:33:53.757Z,12.53
2018-04-13T05:36:26.593Z,7.73
2018-04-13T05:38:53.719Z,7.87
2018-04-13T05:41:20.288Z,16.30
2018-04-13T05:43:47.282Z,6.03
2018-04-13T05:46:14.360Z,8.60
2018-04-13T05:48:41.793Z,9.17
2018-04-13T05:51:09.280Z,11.07
2018-04-13T05:53:37.237Z,15.90
2018-04-13T05:56:09.447Z,8.23
2018-04-13T05:58:42.241Z,8.60
2018-04-13T06:01:15.695Z,9.00
2018-04-13T06:03:41.917Z,8.47
2018-04-13T06:06:08.666Z,11.90
2018-04-13T06:08:47.870Z,5.43
2018-04-13T06:11:14.534Z,7.23
2018-04-13T06:13:40.829Z,13.67
2018-04-13T06:16:08.000Z,12.90
2018-04-13T06:18:40.213Z,8.70
2018-04-13T06:21:12.434Z,7.70
2018-04-13T06:23:46.029Z,8.80
2018-04-13T06:26:12.464Z,7.67
2018-04-13T06:28:39.842Z,9.17
2018-04-13T06:31:08.020Z,5.50
2018-04-13T06:33:41.655Z,8.30
2018-04-13T06:36:14.851Z,7.37
2018-04-13T06:38:41.906Z,9.20
2018-04-13T06:41:09.442Z,12.37
2018-04-13T06:43:35.644Z,11.00
2018-04-13T06:46:08.530Z,7.63
2018-04-13T06:48:40.760Z,5.70
2018-04-13T06:51:06.903Z,10.27
2018-04-13T06:53:34.408Z,8.80
2018-04-13T06:56:07.920Z,7.20
2018-04-13T06:58:41.450Z,4.40
2018-04-13T07:01:07.669Z,5.23
2018-04-13T07:03:34.449Z,7.10
2018-04-13T07:06:00.641Z,7.70
2018-04-13T07:08:27.487Z,5.60
2018-04-13T07:11:00.023Z,12.80
2018-04-13T07:13:27.545Z,7.93
2018-04-13T07:15:53.793Z,6.10
2018-04-13T07:18:32.450Z,6.10
2018-04-13T07:21:04.753Z,8.23
2018-04-13T07:23:32.114Z,6.03
2018-04-13T07:25:58.935Z,12.47
2018-04-13T07:28:26.332Z,6.63
2018-04-13T07:30:53.939Z,6.30
2018-04-13T07:33:26.329Z,5.57
2018-04-13T07:35:53.479Z,8.53
2018-04-13T07:38:20.300Z,5.00
2018-04-13T07:40:47.063Z,4.33
2018-04-13T07:43:20.005Z,5.23
2018-04-13T07:45:55.095Z,5.80
2018-04-13T07:48:21.000Z,13.87
2018-04-13T07:50:47.216Z,4.60
2018-04-13T07:53:14.147Z,3.00
2018-04-13T07:55:40.554Z,6.60
2018-04-13T07:58:14.331Z,6.03
2018-04-13T08:00:41.669Z,7.50
2018-04-13T08:03:08.470Z,5.07
2018-04-13T08:05:41.435Z,8.40
2018-04-13T08:08:08.603Z,4.73
2018-04-13T08:10:41.639Z,14.70
2018-04-13T08:13:08.170Z,7.30
2018-04-13T08:15:41.829Z,10.70
2018-04-13T08:18:14.800Z,4.30
2018-04-13T08:20:48.065Z,3.73
2018-04-13T08:23:20.674Z,5.17
2018-04-13T08:25:47.656Z,4.00
2018-04-13T08:28:20.691Z,4.67
2018-04-13T08:30:47.034Z,7.63
2018-04-13T08:33:26.050Z,7.97
2018-04-13T08:35:58.506Z,2.93
2018-04-13T08:38:25.491Z,3.20
2018-04-13T08:40:53.092Z,5.00
2018-04-13T08:43:26.918Z,4.53
2018-04-13T08:45:53.639Z,4.20
2018-04-13T08:48:21.176Z,4.60
2018-04-13T08:50:49.168Z,5.40
2018-04-13T08:53:21.648Z,3.97
2018-04-13T08:55:47.848Z,3.30
2018-04-13T08:58:14.052Z,4.50
2018-04-13T09:00:48.374Z,4.73
2018-04-13T09:03:16.325Z,3.43
2018-04-13T09:05:42.572Z,5.03
2018-04-13T09:08:16.098Z,2.20
2018-04-13T09:10:42.867Z,5.33
2018-04-13T09:13:09.583Z,1.90
2018-04-13T09:15:35.783Z,5.50
2018-04-13T09:18:09.133Z,2.40
2018-04-13T09:20:35.645Z,1.43
2018-04-13T09:23:03.107Z,3.90
2018-04-13T09:25:49.022Z,2.07
2018-04-13T09:28:16.265Z,1.67
2018-04-13T09:30:43.529Z,2.10
2018-04-13T09:33:10.321Z,1.47
2018-04-13T09:35:49.457Z,1.80
2018-04-13T09:38:16.284Z,1.30
2018-04-13T09:40:49.128Z,3.10
2018-04-13T09:43:15.999Z,3.47
2018-04-13T09:45:42.222Z,1.80
2018-04-13T09:48:08.656Z,2.33
2018-04-13T09:50:42.503Z,2.13
2018-04-13T09:53:09.370Z,2.23
2018-04-13T09:55:42.802Z,1.97
2018-04-13T09:58:15.694Z,2.63
2018-04-13T10:00:43.096Z,1.80
2018-04-13T10:03:16.136Z,5.70
2018-04-13T10:05:49.001Z,1.70
2018-04-13T10:08:21.290Z,2.60
2018-04-13T10:11:00.309Z,4.50
2018-04-13T10:13:33.178Z,2.23
2018-04-13T10:16:06.964Z,2.03
2018-04-13T10:18:34.015Z,2.60
2018-04-13T10:21:07.332Z,4.63
2018-04-13T10:23:34.652Z,8.27
2018-04-13T10:26:01.394Z,1.93
2018-04-13T10:28:27.589Z,3.37
2018-04-13T10:30:54.550Z,3.67
2018-04-13T10:33:23.317Z,2.60
2018-04-13T10:35:49.660Z,3.37
2018-04-13T10:38:23.376Z,2.77
2018-04-13T10:40:50.920Z,2.53
2018-04-13T10:43:17.912Z,2.67
2018-04-13T10:45:44.658Z,2.00
2018-04-13T10:48:10.923Z,3.50
2018-04-13T10:50:43.062Z,4.40
2018-04-13T10:53:09.278Z,2.27
2018-04-13T10:55:35.494Z,3.50
2018-04-13T10:58:01.732Z,5.37
2018-04-13T11:00:27.974Z,3.60
2018-04-13T11:02:55.153Z,2.87
2018-04-13T11:05:27.444Z,9.17
2018-04-13T11:08:01.210Z,3.23
2018-04-13T11:10:33.593Z,4.23
2018-04-13T11:13:00.388Z,3.70
2018-04-13T11:15:32.641Z,2.40
2018-04-13T11:18:01.261Z,2.30
2018-04-13T11:20:34.183Z,4.73
2018-04-13T11:23:01.691Z,3.03
2018-04-13T11:25:34.497Z,37.43
2018-04-13T11:28:01.334Z,4.37
2018-04-13T11:30:27.566Z,3.43
2018-04-13T11:33:00.587Z,7.10
2018-04-13T11:35:35.020Z,7.80
2018-04-13T11:38:01.321Z,4.07
2018-04-13T11:40:35.161Z,2.27
2018-04-13T11:43:02.123Z,4.20
2018-04-13T11:45:32.003Z,6.33
2018-04-13T11:47:59.330Z,6.57
2018-04-13T11:50:25.581Z,3.70
2018-04-13T11:52:53.129Z,4.53
2018-04-13T11:55:20.981Z,2.30
2018-04-13T11:57:53.327Z,5.57
2018-04-13T12:00:19.533Z,3.57
2018-04-13T12:02:46.097Z,7.57
2018-04-13T12:05:12.858Z,3.83
2018-04-13T12:07:40.728Z,6.63
2018-04-13T12:10:07.720Z,4.93
2018-04-13T12:12:33.985Z,4.87
2018-04-13T12:15:00.187Z,3.33
2018-04-13T12:17:26.678Z,2.97
2018-04-13T12:19:53.800Z,3.77
2018-04-13T12:22:20.660Z,2.67
2018-04-13T12:24:47.424Z,2.80
2018-04-13T12:27:14.449Z,3.70
2018-04-13T12:29:41.620Z,6.20
2018-04-13T12:32:07.929Z,4.50
2018-04-13T12:34:34.204Z,3.03
2018-04-13T12:37:01.340Z,3.43
2018-04-13T12:39:28.988Z,2.83
2018-04-13T12:41:56.452Z,3.23
2018-04-13T12:44:22.918Z,4.80
2018-04-13T12:46:49.273Z,2.60
2018-04-13T12:49:15.915Z,16.97
2018-04-13T12:51:43.185Z,8.53
2018-04-13T12:54:10.789Z,4.30
2018-04-13T12:56:38.444Z,3.40
2018-04-13T12:59:05.174Z,6.23
2018-04-13T13:01:31.575Z,2.30
2018-04-13T13:03:59.083Z,5.83
2018-04-13T13:06:25.616Z,2.87
2018-04-13T13:08:52.674Z,2.27
2018-04-13T13:11:18.947Z,3.57
2018-04-13T13:13:46.553Z,3.60
2018-04-13T13:16:12.778Z,3.10
2018-04-13T13:18:39.013Z,7.70
2018-04-13T13:21:05.276Z,9.23
2018-04-13T13:23:31.551Z,6.97
2018-04-13T13:25:58.191Z,6.90
2018-04-13T13:28:24.627Z,6.80
2018-04-13T13:30:51.710Z,4.57
2018-04-13T13:33:18.179Z,3.70
2018-04-13T13:35:45.251Z,9.27
2018-04-13T13:38:12.059Z,3.23
2018-04-13T13:40:38.873Z,4.93
2018-04-13T13:43:05.588Z,5.70
2018-04-13T13:45:32.883Z,3.53
2018-04-13T13:47:59.748Z,2.50
2018-04-13T13:50:27.379Z,4.27
2018-04-13T13:52:54.380Z,2.57
2018-04-13T13:55:21.185Z,2.70
2018-04-13T13:57:48.186Z,8.40
2018-04-13T14:00:14.386Z,19.00
2018-04-13T14:02:41.526Z,5.87
2018-04-13T14:05:07.843Z,4.10
2018-04-13T14:07:35.913Z,4.60
2018-04-13T14:10:03.920Z,1.93
2018-04-13T14:12:30.711Z,2.90
2018-04-13T14:14:57.708Z,1.23
2018-04-13T14:17:23.871Z,1.77
2018-04-13T14:19:50.597Z,1.83
2018-04-13T14:22:17.527Z,1.70
2018-04-13T14:24:44.602Z,3.43
2018-04-13T14:27:10.909Z,4.20
2018-04-13T14:29:37.780Z,2.97
2018-04-13T14:32:04.660Z,3.07
2018-04-13T14:34:31.402Z,2.47
2018-04-13T14:36:58.603Z,1.90
2018-04-13T14:39:25.720Z,1.60
2018-04-13T14:41:52.332Z,1.83
2018-04-13T14:44:18.547Z,2.40
2018-04-13T14:46:45.583Z,2.03
2018-04-13T14:49:13.241Z,2.60
2018-04-13T14:51:39.449Z,2.07
2018-04-13T14:54:06.271Z,1.43
2018-04-13T14:56:32.460Z,1.50
2018-04-13T14:59:00.427Z,2.10
2018-04-13T15:01:28.369Z,3.47
2018-04-13T15:03:55.612Z,4.07
2018-04-13T15:06:22.562Z,2.00
2018-04-13T15:08:48.738Z,2.50
2018-04-13T15:11:15.842Z,1.83
2018-04-13T15:13:42.696Z,2.50
2018-04-13T15:16:09.982Z,2.83
2018-04-13T15:18:37.537Z,2.70
2018-04-13T15:21:03.818Z,2.27
2018-04-13T15:23:30.044Z,2.33
2018-04-13T15:25:56.248Z,3.30
2018-04-13T15:28:23.201Z,3.30
2018-04-13T15:30:50.390Z,3.33
2018-04-13T15:33:17.313Z,3.93
2018-04-13T15:35:43.799Z,4.07
2018-04-13T15:38:11.190Z,3.60
2018-04-13T15:40:37.421Z,3.80
2018-04-13T15:43:03.677Z,3.70
2018-04-13T15:45:30.602Z,3.43
2018-04-13T15:47:57.040Z,8.33
2018-04-13T15:50:23.267Z,7.70
2018-04-13T15:52:50.138Z,7.37
2018-04-13T15:55:16.324Z,5.67
2018-04-13T15:57:42.587Z,7.13
2018-04-13T16:00:09.372Z,5.83
2018-04-13T16:02:35.661Z,5.80
2018-04-13T16:05:02.746Z,6.13
2018-04-13T16:07:29.185Z,4.83
2018-04-13T16:09:56.267Z,4.93
2018-04-13T16:12:23.525Z,5.10
2018-04-13T16:14:49.877Z,4.20
2018-04-13T16:17:17.620Z,7.83
2018-04-13T16:19:45.597Z,5.37
2018-04-13T16:22:12.769Z,4.90
2018-04-13T16:24:39.936Z,5.73
2018-04-13T16:27:06.226Z,6.30
2018-04-13T16:29:34.901Z,7.10
2018-04-13T16:32:02.385Z,6.00
2018-04-13T16:34:28.775Z,5.40
2018-04-13T16:36:54.982Z,5.40
2018-04-13T16:39:21.178Z,4.60
2018-04-13T16:41:47.401Z,5.10
2018-04-13T16:44:13.657Z,4.90
2018-04-13T16:46:40.591Z,4.40
2018-04-13T16:49:07.455Z,6.97
2018-04-13T16:51:34.587Z,4.67
2018-04-13T16:54:01.475Z,5.03
2018-04-13T16:56:29.253Z,5.10
2018-04-13T16:58:56.440Z,5.83
2018-04-13T17:01:24.417Z,5.20
2018-04-13T17:03:52.500Z,4.70
2018-04-13T17:06:19.695Z,4.33
2018-04-13T17:08:47.231Z,4.73
2018-04-13T17:11:14.328Z,4.70
2018-04-13T17:13:42.426Z,4.40
2018-04-13T17:16:08.754Z,5.10
2018-04-13T17:18:36.170Z,5.33
2018-04-13T17:21:02.571Z,5.17
2018-04-13T17:23:28.840Z,4.47
2018-04-13T17:25:55.617Z,4.17
2018-04-13T17:28:21.882Z,5.17
2018-04-13T17:30:48.854Z,3.00
2018-04-13T17:33:16.023Z,2.03
2018-04-13T17:35:42.973Z,27.67
2018-04-13T17:38:09.291Z,41.53
2018-04-13T17:40:36.245Z,19.00
2018-04-13T17:43:02.509Z,83.73
2018-04-13T17:45:29.630Z,136.83
2018-04-13T17:47:56.142Z,61.33
2018-04-13T17:50:23.698Z,42.00
2018-04-13T17:52:51.103Z,36.57
2018-04-13T17:55:18.179Z,19.90
2018-04-13T17:57:45.668Z,13.33
2018-04-13T18:00:11.897Z,8.43
2018-04-13T18:02:38.598Z,5.47
2018-04-13T18:05:05.753Z,4.40
2018-04-13T18:07:32.680Z,3.70
2018-04-13T18:09:59.306Z,4.03
2018-04-13T18:12:26.261Z,3.27
2018-04-13T18:14:52.453Z,4.03
2018-04-13T18:17:18.650Z,4.10
2018-04-13T18:19:44.864Z,4.73
2018-04-13T18:22:11.094Z,5.13
2018-04-13T18:24:38.938Z,5.20
2018-04-13T18:27:05.163Z,10.07
2018-04-13T18:29:31.990Z,7.00
2018-04-13T18:31:59.393Z,5.00
2018-04-13T18:34:25.857Z,5.60
2018-04-13T18:36:52.770Z,6.05
2018-04-13T18:39:19.231Z,5.78
2018-04-13T18:41:46.205Z,7.25
2018-04-13T18:44:13.249Z,6.43
2018-04-13T18:46:39.617Z,7.18
2018-04-13T18:49:07.113Z,8.40
2018-04-13T18:51:34.946Z,7.32
2018-04-13T18:54:02.897Z,7.75
2018-04-13T18:56:30.475Z,7.68
2018-04-13T18:58:56.814Z,6.45
2018-04-13T19:01:23.721Z,8.63
2018-04-13T19:03:49.965Z,10.00
2018-04-13T19:06:18.083Z,8.27
2018-04-13T19:08:44.331Z,7.78
2018-04-13T19:11:11.590Z,9.73
2018-04-13T19:13:38.649Z,9.38
2018-04-13T19:16:05.774Z,9.25
2018-04-13T19:18:32.967Z,9.70
2018-04-13T19:21:00.155Z,8.73
2018-04-13T19:23:26.501Z,9.70
2018-04-13T19:25:52.941Z,9.32
2018-04-13T19:28:23.333Z,9.88
2018-04-13T19:30:49.596Z,9.70
2018-04-13T19:33:16.481Z,8.20
2018-04-13T19:35:43.289Z,8.93
2018-04-13T19:38:10.331Z,9.10
2018-04-13T19:40:38.148Z,9.13
2018-04-13T19:43:04.442Z,9.88
2018-04-13T19:45:31.515Z,10.35
2018-04-13T19:47:58.897Z,9.98
2018-04-13T19:50:26.183Z,11.85
2018-04-13T19:52:52.473Z,12.25
2018-04-13T19:55:18.781Z,10.50
2018-04-13T19:57:45.088Z,9.55
2018-04-13T20:00:11.291Z,12.20
2018-04-13T20:02:37.578Z,11.93
2018-04-13T20:05:04.681Z,11.75
2018-04-13T20:07:31.735Z,11.65
2018-04-13T20:09:58.526Z,11.02
2018-04-13T20:12:24.806Z,10.98
2018-04-13T20:14:51.075Z,12.90
2018-04-13T20:17:17.331Z,11.98
2018-04-13T20:19:44.100Z,11.85
2018-04-13T20:22:10.374Z,11.73
2018-04-13T20:24:37.608Z,12.30
2018-04-13T20:27:04.566Z,13.38
2018-04-13T20:29:31.318Z,12.00
2018-04-13T20:31:57.827Z,12.27
2018-04-13T20:34:25.078Z,11.65
2018-04-13T20:36:51.313Z,13.30
2018-04-13T20:39:17.494Z,12.02
2018-04-13T20:41:44.381Z,11.23
2018-04-13T20:44:11.134Z,12.52
2018-04-13T20:46:37.344Z,12.85
2018-04-13T20:49:04.364Z,10.63
2018-04-13T20:51:30.896Z,13.10
2018-04-13T20:53:58.524Z,14.02
2018-04-13T20:56:24.764Z,13.02
2018-04-13T20:58:50.990Z,12.02
2018-04-13T21:01:17.188Z,12.10
2018-04-13T21:03:44.085Z,12.80
2018-04-13T21:06:10.324Z,11.93
2018-04-13T21:08:37.514Z,12.55
2018-04-13T21:11:04.400Z,15.43
2018-04-13T21:13:31.970Z,14.23
2018-04-13T21:15:58.529Z,14.95
2018-04-13T21:18:26.007Z,12.77
2018-04-13T21:20:53.041Z,12.05
2018-04-13T21:23:19.444Z,13.75
2018-04-13T21:25:45.716Z,12.27
2018-04-13T21:28:12.773Z,12.30
2018-04-13T21:30:39.994Z,14.20
2018-04-13T21:33:08.282Z,11.55
2018-04-13T21:35:34.607Z,9.90
2018-04-13T21:38:00.953Z,13.57
2018-04-13T21:40:27.584Z,12.88
2018-04-13T21:42:55.651Z,11.38
2018-04-13T21:45:22.938Z,11.77
2018-04-13T21:47:49.332Z,12.15
2018-04-13T21:50:16.791Z,10.73
2018-04-13T21:52:43.557Z,13.35
2018-04-13T21:55:09.768Z,13.95
2018-04-13T21:57:35.990Z,12.88
2018-04-13T22:00:02.322Z,13.32
2018-04-13T22:02:29.115Z,12.52
2018-04-13T22:04:56.065Z,14.00
2018-04-13T22:07:22.318Z,12.37
2018-04-13T22:09:49.890Z,12.70
2018-04-13T22:12:30.293Z,11.45
2018-04-13T22:14:57.684Z,11.93
2018-04-13T22:17:25.040Z,14.68
2018-04-13T22:19:53.170Z,12.73
2018-04-13T22:22:19.911Z,12.35
2018-04-13T22:24:46.239Z,10.60
2018-04-13T22:27:12.446Z,18.52
2018-04-13T22:29:38.629Z,11.57
2018-04-13T22:32:05.359Z,11.48
2018-04-13T22:34:32.154Z,11.52
2018-04-13T22:36:58.369Z,12.23
2018-04-13T22:39:25.658Z,10.80
2018-04-13T22:41:51.837Z,10.88
2018-04-13T22:44:18.794Z,12.02
2018-04-13T22:46:44.985Z,11.05
2018-04-13T22:49:11.851Z,11.12
2018-04-13T22:51:38.932Z,11.30
2018-04-13T22:54:05.125Z,10.95
2018-04-13T22:56:31.337Z,12.50
2018-04-13T22:58:58.277Z,11.43
2018-04-13T23:01:24.492Z,10.45
2018-04-13T23:03:51.227Z,9.40
2018-04-13T23:06:17.526Z,12.93
2018-04-13T23:08:43.964Z,12.40
2018-04-13T23:11:11.009Z,11.55
2018-04-13T23:13:37.246Z,12.32
2018-04-13T23:16:03.996Z,11.98
2018-04-13T23:21:05.051Z,13.93
2018-04-13T23:23:32.460Z,13.38
2018-04-13T23:25:59.914Z,13.15
2018-04-13T23:28:26.886Z,17.58
2018-04-13T23:30:53.244Z,13.93
2018-04-13T23:33:20.793Z,13.25
2018-04-13T23:35:46.993Z,12.13
2018-04-13T23:38:13.746Z,13.25
2018-04-13T23:40:40.411Z,12.10
2018-04-13T23:43:08.086Z,12.50
2018-04-13T23:45:35.272Z,12.43
2018-04-13T23:48:01.531Z,12.07
2018-04-13T23:50:28.006Z,11.52
2018-04-13T23:52:55.835Z,14.15
2018-04-13T23:55:22.922Z,12.63
2018-04-13T23:57:50.524Z,14.23
